createdAt,value
2023-04-14T00:02:08.042Z,33.72
2023-04-14T00:04:35.962Z,31.08
2023-04-14T00:07:03.284Z,36.00
2023-04-14T00:09:30.389Z,41.42
2023-04-14T00:11:57.819Z,38.33
2023-04-14T00:14:24.936Z,44.63
2023-04-14T00:16:52.108Z,43.90
2023-04-14T00:19:19.249Z,46.03
2023-04-14T00:21:46.417Z,54.83
2023-04-14T00:24:13.483Z,51.53
2023-04-14T00:26:40.733Z,43.22
2023-04-14T00:29:07.871Z,38.00
2023-04-14T00:31:35.402Z,40.72
2023-04-14T00:34:02.506Z,43.15
2023-04-14T00:36:29.595Z,38.70
2023-04-14T00:38:56.656Z,43.90
2023-04-14T00:41:24.773Z,40.70
2023-04-14T00:43:55.084Z,32.70
2023-04-14T00:46:22.316Z,33.83
2023-04-14T00:48:49.445Z,32.78
2023-04-14T00:51:16.590Z,34.53
2023-04-14T00:53:43.658Z,31.40
2023-04-14T00:56:10.961Z,30.25
2023-04-14T00:58:38.280Z,30.23
2023-04-14T01:01:05.627Z,31.63
2023-04-14T01:03:32.861Z,31.13
2023-04-14T01:06:00.224Z,33.03
2023-04-14T01:08:27.365Z,32.75
2023-04-14T01:11:06.809Z,34.67
2023-04-14T01:13:36.637Z,40.55
2023-04-14T01:16:05.045Z,42.70
2023-04-14T01:18:35.246Z,42.50
2023-04-14T01:21:11.590Z,44.40
2023-04-14T01:23:42.580Z,44.50
2023-04-14T01:26:19.913Z,46.40
2023-04-14T01:28:47.014Z,51.28
2023-04-14T01:31:18.076Z,47.67
2023-04-14T01:33:45.317Z,47.00
2023-04-14T01:36:14.052Z,47.35
2023-04-14T01:38:41.157Z,44.08
2023-04-14T01:41:09.593Z,43.10
2023-04-14T01:43:42.154Z,44.05
2023-04-14T01:46:10.517Z,38.38
2023-04-14T01:48:37.686Z,51.78
2023-04-14T01:51:04.802Z,54.17
2023-04-14T01:53:31.971Z,47.13
2023-04-14T01:55:59.075Z,45.10
2023-04-14T01:58:26.211Z,46.15
2023-04-14T02:00:53.417Z,44.22
2023-04-14T02:03:20.695Z,47.35
2023-04-14T02:05:48.195Z,48.10
2023-04-14T02:08:15.359Z,48.10
2023-04-14T02:10:42.912Z,49.13
2023-04-14T02:13:10.544Z,52.35
2023-04-14T02:15:37.655Z,45.50
2023-04-14T02:18:07.760Z,46.72
2023-04-14T02:20:34.914Z,45.58
2023-04-14T02:23:02.030Z,45.85
2023-04-14T02:25:30.595Z,45.50
2023-04-14T02:27:58.819Z,44.78
2023-04-14T02:30:30.440Z,48.05
2023-04-14T02:32:58.260Z,46.67
2023-04-14T02:35:29.272Z,47.03
2023-04-14T02:38:16.629Z,45.00
2023-04-14T02:40:43.750Z,49.30
2023-04-14T02:43:12.981Z,58.92
2023-04-14T02:45:40.274Z,56.30
2023-04-14T02:48:13.962Z,51.97
2023-04-14T02:50:41.903Z,62.58
2023-04-14T02:53:08.980Z,47.67
2023-04-14T02:55:36.107Z,46.47
2023-04-14T02:58:03.286Z,46.40
2023-04-14T03:00:30.466Z,40.95
2023-04-14T03:02:57.754Z,42.80
2023-04-14T03:05:25.120Z,38.15
2023-04-14T03:07:52.628Z,38.65
2023-04-14T03:10:20.342Z,37.63
2023-04-14T03:12:47.579Z,36.92
2023-04-14T03:15:14.628Z,42.85
2023-04-14T03:17:41.763Z,41.60
2023-04-14T03:20:09.268Z,42.10
2023-04-14T03:22:38.932Z,56.13
2023-04-14T03:25:06.815Z,50.55
2023-04-14T03:27:33.911Z,50.55
2023-04-14T03:30:03.200Z,44.38
2023-04-14T03:32:31.669Z,41.83
2023-04-14T03:34:58.965Z,43.45
2023-04-14T03:37:26.801Z,54.50
2023-04-14T03:39:53.923Z,46.05
2023-04-14T03:42:21.380Z,36.92
2023-04-14T03:44:53.095Z,39.35
2023-04-14T03:47:21.533Z,37.25
2023-04-14T03:49:49.096Z,35.20
2023-04-14T03:52:16.879Z,33.08
2023-04-14T03:54:44.590Z,32.30
2023-04-14T03:57:12.066Z,33.88
2023-04-14T03:59:39.207Z,33.83
2023-04-14T04:02:06.978Z,43.97
2023-04-14T04:04:34.776Z,32.88
2023-04-14T04:07:01.929Z,34.03
2023-04-14T04:09:29.850Z,31.15
2023-04-14T04:11:59.996Z,37.53
2023-04-14T04:14:27.189Z,33.00
2023-04-14T04:16:54.801Z,30.55
2023-04-14T04:19:22.516Z,28.70
2023-04-14T04:21:50.209Z,26.02
2023-04-14T04:24:17.895Z,26.77
2023-04-14T04:26:45.006Z,26.13
2023-04-14T04:29:12.174Z,30.00
2023-04-14T04:31:40.382Z,30.20
2023-04-14T04:34:07.552Z,26.75
2023-04-14T04:36:34.661Z,29.02
2023-04-14T04:39:02.004Z,27.45
2023-04-14T04:41:29.902Z,30.35
2023-04-14T04:43:57.274Z,35.22
2023-04-14T04:46:26.176Z,30.75
2023-04-14T04:48:53.405Z,31.30
2023-04-14T04:51:20.570Z,35.40
2023-04-14T04:53:47.700Z,47.10
2023-04-14T04:56:14.835Z,40.03
2023-04-14T04:58:41.949Z,57.47
2023-04-14T05:01:09.800Z,33.00
2023-04-14T05:03:37.402Z,29.33
2023-04-14T05:06:04.642Z,27.27
2023-04-14T05:08:31.782Z,25.48
2023-04-14T05:10:58.872Z,27.30
2023-04-14T05:13:26.197Z,27.38
2023-04-14T05:15:53.324Z,24.00
2023-04-14T05:18:20.763Z,25.73
2023-04-14T05:20:47.819Z,25.20
2023-04-14T05:23:14.935Z,22.35
2023-04-14T05:25:42.117Z,25.30
2023-04-14T05:28:09.249Z,24.20
2023-04-14T05:30:36.438Z,22.58
2023-04-14T05:33:03.653Z,37.78
2023-04-14T05:35:31.008Z,32.35
2023-04-14T05:37:58.114Z,31.23
2023-04-14T05:40:25.318Z,31.83
2023-04-14T05:42:52.459Z,32.75
2023-04-14T05:45:19.588Z,28.50
2023-04-14T05:47:48.098Z,22.83
2023-04-14T05:50:16.396Z,19.00
2023-04-14T05:52:43.633Z,21.45
2023-04-14T05:55:10.970Z,23.77
2023-04-14T05:57:38.087Z,25.40
2023-04-14T06:00:06.210Z,27.88
2023-04-14T06:02:33.467Z,24.73
2023-04-14T06:05:01.648Z,24.92
2023-04-14T06:07:29.270Z,23.40
2023-04-14T06:09:56.322Z,21.30
2023-04-14T06:12:23.403Z,23.70
2023-04-14T06:14:50.629Z,23.30
2023-04-14T06:17:17.741Z,34.15
2023-04-14T06:19:46.866Z,37.97
2023-04-14T06:22:16.877Z,27.25
2023-04-14T06:24:43.962Z,29.00
2023-04-14T06:27:11.353Z,29.15
2023-04-14T06:29:38.545Z,25.75
2023-04-14T06:32:05.735Z,22.77
2023-04-14T06:34:32.947Z,26.30
2023-04-14T06:37:01.497Z,28.80
2023-04-14T06:39:28.594Z,20.80
2023-04-14T06:41:56.747Z,21.52
2023-04-14T06:44:23.898Z,22.10
2023-04-14T06:46:51.029Z,20.63
2023-04-14T06:49:19.851Z,19.80
2023-04-14T06:51:47.010Z,19.17
2023-04-14T06:54:14.130Z,19.55
2023-04-14T06:56:41.443Z,19.67
2023-04-14T06:59:08.598Z,21.25
2023-04-14T07:01:35.704Z,20.25
2023-04-14T07:04:05.981Z,19.25
2023-04-14T07:06:34.642Z,22.05
2023-04-14T07:09:01.716Z,28.83
2023-04-14T07:11:30.177Z,20.85
2023-04-14T07:13:57.404Z,29.10
2023-04-14T07:16:24.642Z,24.17
2023-04-14T07:18:51.859Z,20.08
2023-04-14T07:21:19.004Z,18.58
2023-04-14T07:23:46.083Z,16.75
2023-04-14T07:26:13.389Z,18.17
2023-04-14T07:28:40.654Z,19.15
2023-04-14T07:31:09.347Z,16.98
2023-04-14T07:33:36.630Z,19.70
2023-04-14T07:36:07.993Z,18.67
2023-04-14T07:38:37.071Z,16.90
2023-04-14T07:41:04.539Z,23.50
2023-04-14T07:43:35.210Z,21.75
2023-04-14T07:46:04.860Z,23.23
2023-04-14T07:48:32.364Z,22.10
2023-04-14T07:50:59.501Z,18.58
2023-04-14T07:53:26.698Z,15.93
2023-04-14T07:55:53.804Z,15.07
2023-04-14T07:58:22.686Z,18.13
2023-04-14T08:00:52.347Z,15.25
2023-04-14T08:03:19.618Z,15.35
2023-04-14T08:05:47.609Z,17.23
2023-04-14T08:08:15.414Z,14.38
2023-04-14T08:10:42.710Z,14.75
2023-04-14T08:13:10.243Z,14.55
2023-04-14T08:15:37.354Z,16.25
2023-04-14T08:18:04.498Z,13.77
2023-04-14T08:20:31.706Z,14.57
2023-04-14T08:22:58.859Z,13.77
2023-04-14T08:25:26.113Z,13.02
2023-04-14T08:27:53.426Z,13.23
2023-04-14T08:30:20.511Z,14.23
2023-04-14T08:32:47.650Z,14.60
2023-04-14T08:35:35.459Z,13.32
2023-04-14T08:38:02.483Z,16.45
2023-04-14T08:40:42.503Z,18.75
2023-04-14T08:43:11.182Z,17.00
2023-04-14T08:45:40.596Z,31.75
2023-04-14T08:48:07.788Z,45.17
2023-04-14T08:50:38.448Z,18.98
2023-04-14T08:53:07.155Z,14.63
2023-04-14T08:55:34.333Z,11.02
2023-04-14T08:58:02.269Z,11.88
2023-04-14T09:00:29.400Z,19.30
2023-04-14T09:02:57.037Z,13.38
2023-04-14T09:05:24.226Z,12.65
2023-04-14T09:07:51.366Z,12.70
2023-04-14T09:10:18.651Z,12.73
2023-04-14T09:12:45.728Z,12.93
2023-04-14T09:15:13.583Z,26.52
2023-04-14T09:17:41.006Z,12.75
2023-04-14T09:20:38.195Z,24.52
2023-04-14T09:22:55.621Z,15.93
2023-04-14T09:25:22.756Z,20.98
2023-04-14T09:27:50.600Z,12.57
2023-04-14T09:30:17.946Z,13.15
2023-04-14T09:32:45.398Z,10.43
2023-04-14T09:35:14.195Z,9.88
2023-04-14T09:37:44.729Z,14.85
2023-04-14T09:40:12.193Z,15.00
2023-04-14T09:42:40.100Z,11.52
2023-04-14T09:45:08.352Z,7.50
2023-04-14T09:47:35.798Z,10.10
2023-04-14T09:50:03.961Z,11.65
2023-04-14T09:52:47.527Z,9.02
2023-04-14T09:55:15.582Z,8.85
2023-04-14T09:57:43.013Z,9.23
2023-04-14T10:00:16.368Z,8.65
2023-04-14T10:02:49.986Z,9.38
2023-04-14T10:05:18.202Z,5.95
2023-04-14T10:07:46.160Z,11.00
2023-04-14T10:10:13.709Z,9.52
2023-04-14T10:12:44.164Z,7.13
2023-04-14T10:15:12.187Z,7.18
2023-04-14T10:17:39.827Z,4.43
2023-04-14T10:20:07.748Z,6.70
2023-04-14T10:22:35.063Z,4.57
2023-04-14T10:25:02.151Z,4.88
2023-04-14T10:27:30.249Z,3.85
2023-04-14T10:29:57.501Z,4.47
2023-04-14T10:32:24.917Z,2.50
2023-04-14T10:35:00.411Z,3.90
2023-04-14T10:37:27.509Z,3.97
2023-04-14T10:39:55.722Z,3.17
2023-04-14T10:42:22.981Z,3.85
2023-04-14T10:45:22.335Z,4.07
2023-04-14T10:47:50.315Z,3.42
2023-04-14T10:50:20.665Z,5.20
2023-04-14T10:52:52.014Z,3.22
2023-04-14T10:55:21.698Z,6.80
2023-04-14T10:57:48.874Z,6.55
2023-04-14T11:00:25.156Z,3.95
2023-04-14T11:02:55.923Z,6.68
2023-04-14T11:05:23.132Z,3.72
2023-04-14T11:07:53.558Z,4.90
2023-04-14T11:10:21.171Z,8.15
2023-04-14T11:12:48.870Z,6.72
2023-04-14T11:15:19.116Z,4.18
2023-04-14T11:17:46.320Z,7.95
2023-04-14T11:20:22.988Z,6.75
2023-04-14T11:22:50.791Z,10.25
2023-04-14T11:25:19.717Z,8.18
2023-04-14T11:27:48.636Z,6.22
2023-04-14T11:30:16.506Z,4.18
2023-04-14T11:32:47.781Z,5.80
2023-04-14T11:35:15.961Z,3.47
2023-04-14T11:37:43.189Z,3.35
2023-04-14T11:40:10.814Z,2.75
2023-04-14T11:42:38.218Z,3.47
2023-04-14T11:45:05.963Z,2.50
2023-04-14T11:47:33.158Z,3.55
2023-04-14T11:50:04.920Z,3.67
2023-04-14T11:52:34.626Z,5.03
2023-04-14T11:55:02.550Z,4.40
2023-04-14T11:57:29.706Z,8.27
2023-04-14T11:59:57.037Z,4.85
2023-04-14T12:02:24.287Z,5.38
2023-04-14T12:04:51.893Z,5.32
2023-04-14T12:07:19.589Z,2.53
2023-04-14T12:09:50.096Z,4.97
2023-04-14T12:12:17.765Z,2.97
2023-04-14T12:14:48.612Z,5.32
2023-04-14T12:17:15.953Z,4.20
2023-04-14T12:19:43.880Z,3.65
2023-04-14T12:22:10.977Z,6.55
2023-04-14T12:24:38.458Z,6.43
2023-04-14T12:27:06.463Z,4.28
2023-04-14T12:29:43.786Z,3.35
2023-04-14T12:32:11.813Z,8.27
2023-04-14T12:34:39.179Z,7.40
2023-04-14T12:37:12.767Z,7.70
2023-04-14T12:39:52.660Z,9.07
2023-04-14T12:42:19.881Z,5.88
2023-04-14T12:45:00.353Z,4.05
2023-04-14T12:47:28.918Z,5.10
2023-04-14T12:49:56.958Z,4.15
2023-04-14T12:52:37.026Z,4.07
2023-04-14T12:55:04.850Z,6.22
2023-04-14T12:57:32.692Z,4.30
2023-04-14T13:00:00.935Z,3.80
2023-04-14T13:02:29.661Z,4.40
2023-04-14T13:05:00.144Z,3.72
2023-04-14T13:07:27.317Z,3.88
2023-04-14T13:09:54.435Z,4.75
2023-04-14T13:12:21.546Z,4.75
2023-04-14T13:14:48.669Z,5.55
2023-04-14T13:17:15.879Z,3.72
2023-04-14T13:19:43.049Z,3.85
2023-04-14T13:22:10.322Z,4.35
2023-04-14T13:24:37.430Z,4.03
2023-04-14T13:27:04.602Z,5.95
2023-04-14T13:29:34.679Z,7.57
2023-04-14T13:32:01.926Z,9.57
2023-04-14T13:34:29.206Z,5.68
2023-04-14T13:36:56.483Z,4.47
2023-04-14T13:39:23.572Z,5.70
2023-04-14T13:41:51.224Z,5.28
2023-04-14T13:44:18.787Z,4.13
2023-04-14T13:46:46.199Z,3.90
2023-04-14T13:49:13.463Z,3.75
2023-04-14T13:51:40.611Z,6.78
2023-04-14T13:54:07.796Z,6.68
2023-04-14T13:56:34.887Z,6.28
2023-04-14T13:59:02.334Z,62.60
2023-04-14T14:01:29.698Z,13.93
2023-04-14T14:03:57.099Z,31.95
2023-04-14T14:06:24.494Z,37.47
2023-04-14T14:09:05.981Z,36.75
2023-04-14T14:11:33.690Z,33.53
2023-04-14T14:14:00.949Z,7.90
2023-04-14T14:18:59.927Z,46.47
2023-04-14T14:21:27.462Z,18.88
2023-04-14T14:23:54.532Z,14.13
2023-04-14T14:26:21.726Z,10.60
2023-04-14T14:28:49.151Z,7.50
2023-04-14T14:31:16.509Z,8.50
2023-04-14T14:33:43.647Z,8.20
2023-04-14T14:36:10.736Z,22.63
2023-04-14T14:38:38.202Z,9.32
2023-04-14T14:41:05.512Z,6.05
2023-04-14T14:43:32.618Z,6.68
2023-04-14T14:46:01.330Z,7.95
2023-04-14T14:48:28.739Z,6.40
2023-04-14T14:50:55.868Z,5.32
2023-04-14T14:53:22.971Z,5.80
2023-04-14T14:55:50.368Z,4.57
2023-04-14T14:58:17.485Z,6.18
2023-04-14T15:00:44.667Z,12.98
2023-04-14T15:03:12.188Z,5.65
2023-04-14T15:05:39.511Z,15.00
2023-04-14T15:08:07.270Z,9.63
2023-04-14T15:10:34.383Z,18.00
2023-04-14T15:13:01.530Z,4.30
2023-04-14T15:15:29.030Z,4.40
2023-04-14T15:17:56.231Z,2.97
2023-04-14T15:20:23.398Z,3.35
2023-04-14T15:22:50.794Z,3.10
2023-04-14T15:25:17.938Z,3.10
2023-04-14T15:27:45.144Z,8.05
2023-04-14T15:30:12.416Z,14.65
2023-04-14T15:32:39.552Z,10.90
2023-04-14T15:35:06.871Z,4.07
2023-04-14T15:37:34.005Z,6.90
2023-04-14T15:40:01.491Z,16.83
2023-04-14T15:42:28.685Z,7.43
2023-04-14T15:44:55.841Z,6.32
2023-04-14T15:47:23.071Z,4.75
2023-04-14T15:49:52.469Z,4.18
2023-04-14T15:52:34.603Z,4.70
2023-04-14T15:55:01.749Z,5.60
2023-04-14T15:57:28.874Z,4.25
2023-04-14T15:59:56.457Z,4.13
2023-04-14T16:02:23.698Z,3.33
2023-04-14T16:04:51.526Z,3.38
2023-04-14T16:07:18.640Z,4.07
2023-04-14T16:09:46.454Z,3.00
2023-04-14T16:12:13.572Z,2.92
2023-04-14T16:14:40.664Z,5.50
2023-04-14T16:17:07.856Z,3.10
2023-04-14T16:19:34.954Z,3.25
2023-04-14T16:22:02.799Z,8.32
2023-04-14T16:24:29.885Z,8.32
2023-04-14T16:26:57.742Z,6.97
2023-04-14T16:29:24.918Z,5.40
2023-04-14T16:31:52.061Z,6.70
2023-04-14T16:34:20.330Z,4.63
2023-04-14T16:36:47.819Z,4.25
2023-04-14T16:39:15.387Z,4.20
2023-04-14T16:41:42.529Z,3.60
2023-04-14T16:44:09.631Z,3.78
2023-04-14T16:46:36.712Z,11.63
2023-04-14T16:49:04.101Z,8.07
2023-04-14T16:51:31.346Z,4.40
2023-04-14T16:53:58.975Z,6.07
2023-04-14T16:56:26.295Z,12.00
2023-04-14T16:58:53.422Z,4.68
2023-04-14T17:01:20.921Z,6.35
2023-04-14T17:03:48.294Z,7.00
2023-04-14T17:06:15.756Z,6.50
2023-04-14T17:08:42.845Z,4.03
2023-04-14T17:11:09.894Z,8.30
2023-04-14T17:13:36.978Z,4.85
2023-04-14T17:16:09.071Z,7.57
2023-04-14T17:18:36.662Z,3.05
2023-04-14T17:21:04.409Z,6.03
2023-04-14T17:23:31.996Z,5.03
2023-04-14T17:25:59.762Z,2.50
2023-04-14T17:28:27.466Z,5.18
2023-04-14T17:30:54.573Z,3.88
2023-04-14T17:33:21.946Z,2.72
2023-04-14T17:35:49.026Z,4.90
2023-04-14T17:38:16.132Z,2.80
2023-04-14T17:40:43.243Z,4.10
2023-04-14T17:43:10.325Z,9.13
2023-04-14T17:45:39.909Z,9.50
2023-04-14T17:48:07.560Z,8.13
2023-04-14T17:50:35.779Z,5.53
2023-04-14T17:53:02.873Z,5.55
2023-04-14T17:55:30.142Z,2.42
2023-04-14T17:57:57.674Z,3.28
2023-04-14T18:00:24.777Z,2.85
2023-04-14T18:02:52.009Z,3.28
2023-04-14T18:05:19.255Z,2.85
2023-04-14T18:07:46.882Z,2.35
2023-04-14T18:10:14.022Z,8.95
2023-04-14T18:12:41.108Z,4.20
2023-04-14T18:15:08.413Z,4.10
2023-04-14T18:17:36.469Z,6.75
2023-04-14T18:20:04.193Z,4.40
2023-04-14T18:22:31.515Z,9.98
2023-04-14T18:24:58.690Z,9.35
2023-04-14T18:29:55.812Z,6.82
2023-04-14T18:32:25.256Z,7.90
2023-04-14T18:34:52.647Z,146.73
2023-04-14T18:37:19.814Z,32.17
2023-04-14T18:39:46.986Z,19.98
2023-04-14T18:42:14.624Z,15.02
2023-04-14T18:44:42.013Z,16.05
2023-04-14T18:47:09.618Z,5.97
2023-04-14T18:49:36.683Z,7.45
2023-04-14T18:52:05.074Z,8.57
2023-04-14T18:54:32.272Z,14.00
2023-04-14T18:57:00.013Z,9.00
2023-04-14T18:59:27.614Z,6.95
2023-04-14T19:01:54.846Z,8.07
2023-04-14T19:04:30.658Z,10.77
2023-04-14T19:06:58.628Z,6.07
2023-04-14T19:09:28.446Z,32.40
2023-04-14T19:11:55.669Z,40.45
2023-04-14T19:14:22.750Z,17.05
2023-04-14T19:16:50.243Z,30.05
2023-04-14T19:19:17.350Z,22.33
2023-04-14T19:21:44.481Z,11.10
2023-04-14T19:24:13.452Z,11.00
2023-04-14T19:26:40.897Z,11.63
2023-04-14T19:29:08.104Z,12.13
2023-04-14T19:31:35.279Z,8.95
2023-04-14T19:34:02.405Z,14.63
2023-04-14T19:36:32.264Z,80.05
2023-04-14T19:39:00.073Z,40.10
2023-04-14T19:41:27.433Z,40.85
2023-04-14T19:43:54.569Z,31.90
2023-04-14T19:46:21.754Z,26.52
2023-04-14T19:48:50.255Z,14.05
2023-04-14T19:51:18.282Z,18.65
2023-04-14T19:53:47.994Z,15.80
2023-04-14T19:56:15.155Z,26.60
2023-04-14T19:58:43.320Z,22.30
2023-04-14T20:01:11.247Z,25.30
2023-04-14T20:03:38.558Z,5.15
2023-04-14T20:06:26.435Z,3.13
2023-04-14T20:08:53.589Z,2.63
2023-04-14T20:11:20.843Z,4.70
2023-04-14T20:13:48.031Z,19.90
2023-04-14T20:16:15.912Z,28.80
2023-04-14T20:18:45.267Z,38.60
2023-04-14T20:21:13.691Z,32.30
2023-04-14T20:23:40.900Z,30.85
2023-04-14T20:26:08.071Z,10.40
2023-04-14T20:28:35.220Z,7.13
2023-04-14T20:31:03.219Z,22.25
2023-04-14T20:33:30.913Z,15.48
2023-04-14T20:36:00.012Z,29.08
2023-04-14T20:38:27.880Z,15.55
2023-04-14T20:40:54.957Z,20.45
2023-04-14T20:43:22.315Z,22.70
2023-04-14T20:45:49.978Z,20.20
2023-04-14T20:48:17.353Z,16.00
2023-04-14T20:50:49.313Z,14.77
2023-04-14T20:53:17.779Z,16.20
2023-04-14T20:55:44.822Z,16.67
2023-04-14T20:58:12.973Z,14.95
2023-04-14T21:00:40.862Z,12.45
2023-04-14T21:03:09.664Z,18.35
2023-04-14T21:05:36.979Z,20.35
2023-04-14T21:08:04.089Z,22.10
2023-04-14T21:10:31.209Z,17.70
2023-04-14T21:15:26.839Z,20.73
2023-04-14T21:15:54.247Z,20.27
2023-04-14T21:18:23.631Z,16.38
2023-04-14T21:20:50.744Z,17.08
2023-04-14T21:23:20.167Z,12.05
2023-04-14T21:25:48.048Z,18.63
2023-04-14T21:28:15.786Z,20.45
2023-04-14T21:30:44.333Z,19.55
2023-04-14T21:33:11.764Z,22.85
2023-04-14T21:35:40.412Z,25.63
2023-04-14T21:38:08.016Z,22.23
2023-04-14T21:40:35.554Z,15.63
2023-04-14T21:43:02.656Z,21.45
2023-04-14T21:45:29.795Z,14.25
2023-04-14T21:47:57.870Z,13.13
2023-04-14T21:50:25.108Z,15.75
2023-04-14T21:52:52.387Z,15.23
2023-04-14T21:55:19.549Z,14.57
2023-04-14T21:57:49.183Z,15.57
2023-04-14T22:00:17.730Z,15.27
2023-04-14T22:02:45.601Z,20.63
2023-04-14T22:05:13.307Z,12.93
2023-04-14T22:07:41.103Z,18.92
2023-04-14T22:10:08.448Z,20.40
2023-04-14T22:12:39.797Z,13.52
2023-04-14T22:15:10.542Z,17.48
2023-04-14T22:17:38.692Z,16.55
2023-04-14T22:20:06.505Z,12.95
2023-04-14T22:22:33.705Z,16.25
2023-04-14T22:25:01.867Z,17.98
2023-04-14T22:27:29.015Z,13.80
2023-04-14T22:29:56.587Z,8.65
2023-04-14T22:32:23.735Z,12.02
2023-04-14T22:34:50.942Z,13.18
2023-04-14T22:37:18.074Z,16.42
2023-04-14T22:39:45.171Z,12.85
2023-04-14T22:42:13.077Z,11.68
2023-04-14T22:44:40.217Z,12.95
2023-04-14T22:47:07.506Z,11.52
2023-04-14T22:49:34.598Z,16.98
2023-04-14T22:52:01.811Z,17.10
2023-04-14T22:54:28.906Z,13.45
2023-04-14T22:56:56.035Z,13.73
2023-04-14T22:59:23.815Z,13.63
2023-04-14T23:01:52.380Z,12.85
2023-04-14T23:04:19.800Z,15.15
2023-04-14T23:06:47.334Z,13.40
2023-04-14T23:09:15.251Z,19.38
2023-04-14T23:11:42.610Z,60.42
2023-04-14T23:14:09.717Z,31.67
2023-04-14T23:16:37.169Z,26.17
2023-04-14T23:19:04.511Z,20.17
2023-04-14T23:21:31.879Z,26.73
2023-04-14T23:23:59.140Z,32.28
2023-04-14T23:26:26.410Z,16.77
2023-04-14T23:28:54.439Z,17.08
2023-04-14T23:31:21.837Z,17.00
2023-04-14T23:33:50.937Z,16.42
2023-04-14T23:36:18.674Z,15.65
2023-04-14T23:38:45.785Z,13.85
2023-04-14T23:41:12.899Z,21.92
2023-04-14T23:43:40.067Z,21.98
2023-04-14T23:46:07.173Z,18.65
2023-04-14T23:48:34.260Z,11.98
2023-04-14T23:51:16.576Z,11.93
2023-04-14T23:53:49.030Z,16.90
2023-04-14T23:56:16.438Z,11.00
2023-04-14T23:58:43.862Z,11.98
